createdAt,value
2022-10-20T00:01:51.376Z,98132.94
2022-10-20T00:04:17.953Z,98127.47
2022-10-20T00:06:45.974Z,98125.78
2022-10-20T00:09:12.572Z,98131.97
2022-10-20T00:11:39.277Z,98134.03
2022-10-20T00:14:06.275Z,98129.72
2022-10-20T00:16:36.456Z,98129.38
2022-10-20T00:19:03.763Z,98124.41
2022-10-20T00:21:31.627Z,98130.16
2022-10-20T00:24:01.163Z,98126.19
2022-10-20T00:26:29.384Z,98132.25
2022-10-20T00:28:56.186Z,98140.94
2022-10-20T00:31:24.014Z,98136.22
2022-10-20T00:33:50.805Z,98127.13
2022-10-20T00:36:19.656Z,98123.59
2022-10-20T00:38:46.250Z,98125.03
2022-10-20T00:41:14.760Z,98126.47
2022-10-20T00:43:46.296Z,98133.63
2022-10-20T00:46:15.357Z,98125.31
2022-10-20T00:48:45.582Z,98122.25
2022-10-20T00:51:14.843Z,98115.97
2022-10-20T00:53:43.408Z,98112.97
2022-10-20T00:56:10.167Z,98106.25
2022-10-20T00:58:38.515Z,98109.47
2022-10-20T01:01:05.214Z,98114.72
2022-10-20T01:03:40.504Z,98106.09
2022-10-20T01:06:07.147Z,98107.16
2022-10-20T01:08:33.914Z,98103.88
2022-10-20T01:11:09.558Z,98106.09
2022-10-20T01:13:44.402Z,98095.47
2022-10-20T01:16:19.288Z,98102.59
2022-10-20T01:18:53.740Z,98102.81
2022-10-20T01:21:38.433Z,98110.19
2022-10-20T01:24:32.279Z,98103.28
2022-10-20T01:27:31.087Z,98099.81
2022-10-20T01:30:04.980Z,98095.88
2022-10-20T01:32:42.075Z,98096.84
2022-10-20T01:35:13.092Z,98106.00
2022-10-20T01:37:49.468Z,98096.03
2022-10-20T01:40:25.523Z,98090.69
2022-10-20T01:42:56.645Z,98079.66
2022-10-20T01:45:27.124Z,98076.69
2022-10-20T01:47:54.670Z,98069.16
2022-10-20T01:50:22.448Z,98074.75
2022-10-20T01:52:48.996Z,98072.59
2022-10-20T01:55:18.085Z,98072.06
2022-10-20T01:57:58.685Z,98073.72
2022-10-20T02:00:25.625Z,98080.00
2022-10-20T02:03:17.645Z,98067.66
2022-10-20T02:05:52.999Z,98061.81
2022-10-20T02:08:30.385Z,98069.69
2022-10-20T02:10:59.927Z,98067.44
2022-10-20T02:13:30.056Z,98073.97
2022-10-20T02:15:58.939Z,98077.81
2022-10-20T02:18:30.097Z,98080.31
2022-10-20T02:21:00.611Z,98083.00
2022-10-20T02:23:33.837Z,98075.13
2022-10-20T02:26:05.867Z,98066.41
2022-10-20T02:28:37.629Z,98074.03
2022-10-20T02:31:05.006Z,98064.97
2022-10-20T02:33:32.438Z,98062.84
2022-10-20T02:36:00.478Z,98066.47
2022-10-20T02:38:27.052Z,98075.28
2022-10-20T02:40:53.628Z,98072.41
2022-10-20T02:43:20.192Z,98071.56
2022-10-20T02:45:48.269Z,98065.84
2022-10-20T02:48:14.807Z,98063.53
2022-10-20T02:50:41.352Z,98058.41
2022-10-20T02:53:07.930Z,98060.56
2022-10-20T02:55:34.510Z,98053.25
2022-10-20T02:58:01.284Z,98056.34
2022-10-20T03:00:27.887Z,98040.97
2022-10-20T03:02:55.763Z,98044.69
2022-10-20T03:05:22.335Z,98040.22
2022-10-20T03:07:48.884Z,98035.38
2022-10-20T03:10:15.502Z,98036.34
2022-10-20T03:12:42.049Z,98042.13
2022-10-20T03:15:09.124Z,98041.97
2022-10-20T03:17:35.983Z,98032.94
2022-10-20T03:20:05.749Z,98035.59
2022-10-20T03:22:32.287Z,98036.81
2022-10-20T03:24:58.846Z,98037.91
2022-10-20T03:27:25.387Z,98035.19
2022-10-20T03:29:51.970Z,98019.41
2022-10-20T03:32:18.492Z,98030.34
2022-10-20T03:34:45.050Z,98027.03
2022-10-20T03:37:13.014Z,98034.88
2022-10-20T03:39:39.596Z,98030.56
2022-10-20T03:42:06.110Z,98026.50
2022-10-20T03:44:32.677Z,98020.03
2022-10-20T03:46:59.222Z,98021.13
2022-10-20T03:49:25.818Z,98009.56
2022-10-20T03:51:52.375Z,98008.66
2022-10-20T03:54:20.292Z,98004.91
2022-10-20T03:56:46.868Z,98006.31
2022-10-20T03:59:13.419Z,98016.47
2022-10-20T04:01:43.940Z,98021.53
2022-10-20T04:04:10.528Z,98020.50
2022-10-20T04:06:37.209Z,98028.25
2022-10-20T04:09:04.406Z,98020.47
2022-10-20T04:11:32.985Z,98019.63
2022-10-20T04:13:59.729Z,98011.97
2022-10-20T04:16:26.273Z,98004.63
2022-10-20T04:18:53.066Z,98001.84
2022-10-20T04:21:19.640Z,97997.19
2022-10-20T04:23:46.173Z,98006.88
2022-10-20T04:26:14.865Z,98007.06
2022-10-20T04:28:43.143Z,98000.25
2022-10-20T04:31:09.753Z,98005.22
2022-10-20T04:33:36.572Z,97999.25
2022-10-20T04:36:05.882Z,97991.81
2022-10-20T04:38:33.954Z,97989.19
2022-10-20T04:41:04.083Z,97986.72
2022-10-20T04:43:30.931Z,97989.63
2022-10-20T04:46:03.976Z,97983.97
2022-10-20T04:48:33.744Z,97990.59
2022-10-20T04:51:01.507Z,97993.56
2022-10-20T04:53:28.073Z,97987.78
2022-10-20T04:55:55.252Z,97994.75
2022-10-20T04:58:21.818Z,97989.88
2022-10-20T05:00:48.422Z,97995.06
2022-10-20T05:03:16.316Z,97993.66
2022-10-20T05:05:42.862Z,97986.09
2022-10-20T05:08:09.405Z,97987.34
2022-10-20T05:10:36.777Z,97982.91
2022-10-20T05:13:03.467Z,97974.75
2022-10-20T05:15:30.025Z,97980.03
2022-10-20T05:17:57.679Z,97979.28
2022-10-20T05:20:25.717Z,97972.19
2022-10-20T05:22:52.258Z,97974.94
2022-10-20T05:25:35.486Z,97972.47
2022-10-20T05:28:03.776Z,97971.00
2022-10-20T05:30:30.373Z,97972.19
2022-10-20T05:32:57.119Z,97978.56
2022-10-20T05:35:25.009Z,97976.94
2022-10-20T05:37:51.563Z,97983.63
2022-10-20T05:40:18.092Z,97980.00
2022-10-20T05:42:44.675Z,97972.38
2022-10-20T05:45:11.502Z,97964.28
2022-10-20T05:47:38.127Z,97969.88
2022-10-20T05:50:05.355Z,97960.66
2022-10-20T05:52:35.032Z,97963.13
2022-10-20T05:55:01.748Z,97964.91
2022-10-20T05:57:28.300Z,97968.84
2022-10-20T05:59:54.859Z,97966.81
2022-10-20T06:02:21.443Z,97975.91
2022-10-20T06:04:48.078Z,97978.28
2022-10-20T06:07:14.616Z,97974.13
2022-10-20T06:09:42.580Z,97972.56
2022-10-20T06:14:40.578Z,97968.84
2022-10-20T06:17:07.163Z,97974.56
2022-10-20T06:19:33.738Z,97964.91
2022-10-20T06:22:03.939Z,97970.38
2022-10-20T06:24:33.388Z,97976.66
2022-10-20T06:27:01.305Z,97971.59
2022-10-20T06:29:28.058Z,97973.63
2022-10-20T06:31:55.025Z,97962.53
2022-10-20T06:34:23.868Z,97974.38
2022-10-20T06:36:51.599Z,97978.31
2022-10-20T06:39:19.792Z,97978.69
2022-10-20T06:41:47.700Z,97982.03
2022-10-20T06:44:15.743Z,97976.78
2022-10-20T06:46:42.295Z,97973.09
2022-10-20T06:49:13.051Z,97975.44
2022-10-20T06:51:40.263Z,97974.56
2022-10-20T06:54:07.113Z,97963.53
2022-10-20T06:56:35.450Z,97968.28
2022-10-20T06:59:02.864Z,97974.72
2022-10-20T07:01:32.583Z,97978.13
2022-10-20T07:04:01.219Z,97971.88
2022-10-20T07:06:30.493Z,97967.28
2022-10-20T07:08:58.169Z,97968.75
2022-10-20T07:11:27.813Z,97961.16
2022-10-20T07:13:54.905Z,97972.69
2022-10-20T07:16:23.404Z,97964.09
2022-10-20T07:18:51.808Z,97966.00
2022-10-20T07:21:20.322Z,97965.47
2022-10-20T07:23:47.648Z,97966.22
2022-10-20T07:26:16.259Z,97965.75
2022-10-20T07:28:44.865Z,97975.38
2022-10-20T07:31:13.964Z,97960.44
2022-10-20T07:33:41.235Z,97956.44
2022-10-20T07:36:13.747Z,97954.63
2022-10-20T07:38:40.446Z,97953.66
2022-10-20T07:41:07.097Z,97959.91
2022-10-20T07:43:33.640Z,97958.59
2022-10-20T07:46:00.184Z,97964.41
2022-10-20T07:48:26.750Z,97971.03
2022-10-20T07:50:53.325Z,97974.47
2022-10-20T07:53:21.233Z,97969.59
2022-10-20T07:55:47.759Z,97959.78
2022-10-20T07:58:14.340Z,97953.78
2022-10-20T08:00:41.195Z,97949.16
2022-10-20T08:03:09.369Z,97940.94
2022-10-20T08:05:35.886Z,97940.94
2022-10-20T08:08:02.655Z,97941.78
2022-10-20T08:10:30.532Z,97947.81
2022-10-20T08:12:57.095Z,97946.97
2022-10-20T08:15:23.703Z,97946.06
2022-10-20T08:17:50.257Z,97932.00
2022-10-20T08:23:00.307Z,97907.91
2022-10-20T08:25:27.049Z,97898.25
2022-10-20T08:27:54.984Z,97893.53
2022-10-20T08:30:24.233Z,97908.44
2022-10-20T08:32:51.267Z,97910.84
2022-10-20T08:35:18.151Z,97903.28
2022-10-20T08:37:44.723Z,97890.16
2022-10-20T08:40:16.298Z,97883.97
2022-10-20T08:42:44.375Z,97886.84
2022-10-20T08:45:16.781Z,97896.88
2022-10-20T08:47:44.787Z,97894.50
2022-10-20T08:50:13.746Z,97898.19
2022-10-20T08:52:41.990Z,97890.47
2022-10-20T08:55:19.158Z,97895.53
2022-10-20T08:57:48.820Z,97892.81
2022-10-20T09:00:19.929Z,97885.38
2022-10-20T09:02:47.839Z,97885.25
2022-10-20T09:05:19.201Z,97883.16
2022-10-20T09:07:46.400Z,97871.25
2022-10-20T09:10:25.008Z,97875.47
2022-10-20T09:12:52.179Z,97874.00
2022-10-20T09:15:21.741Z,97874.63
2022-10-20T09:17:50.761Z,97865.56
2022-10-20T09:20:21.590Z,97867.13
2022-10-20T09:22:48.421Z,97872.47
2022-10-20T09:25:17.647Z,97866.53
2022-10-20T09:27:44.530Z,97870.31
2022-10-20T09:30:16.848Z,97849.16
2022-10-20T09:32:47.284Z,97851.72
2022-10-20T09:35:25.961Z,97833.63
2022-10-20T09:38:01.472Z,97833.38
2022-10-20T09:40:28.151Z,97831.72
2022-10-20T09:42:56.842Z,97838.19
2022-10-20T09:45:26.824Z,97843.66
2022-10-20T09:47:59.093Z,97847.94
2022-10-20T09:50:28.793Z,97846.81
2022-10-20T09:52:56.645Z,97849.81
2022-10-20T09:55:28.962Z,97839.56
2022-10-20T09:57:57.750Z,97828.25
2022-10-20T10:00:36.865Z,97829.78
2022-10-20T10:03:17.609Z,97819.63
2022-10-20T10:05:44.130Z,97819.81
2022-10-20T10:08:14.369Z,97807.28
2022-10-20T10:10:41.898Z,97799.56
2022-10-20T10:13:24.715Z,97791.88
2022-10-20T10:16:01.031Z,97791.34
2022-10-20T10:18:29.321Z,97782.38
2022-10-20T10:21:01.740Z,97791.06
2022-10-20T10:23:30.326Z,97791.03
2022-10-20T10:26:00.646Z,97789.41
2022-10-20T10:28:32.855Z,97808.25
2022-10-20T10:31:19.948Z,97802.84
2022-10-20T10:33:49.047Z,97804.28
2022-10-20T10:36:25.292Z,97800.75
2022-10-20T10:38:51.865Z,97807.13
2022-10-20T10:41:25.124Z,97807.06
2022-10-20T10:44:00.384Z,97802.00
2022-10-20T10:46:31.769Z,97798.63
2022-10-20T10:49:19.888Z,97794.03
2022-10-20T10:51:58.151Z,97790.13
2022-10-20T10:54:37.508Z,97785.69
2022-10-20T10:57:12.980Z,97788.53
2022-10-20T10:59:43.395Z,97785.56
2022-10-20T11:02:26.283Z,97792.94
2022-10-20T11:05:24.523Z,97773.94
2022-10-20T11:08:02.285Z,97767.66
2022-10-20T11:10:34.876Z,97762.53
2022-10-20T11:13:17.555Z,97748.47
2022-10-20T11:15:59.342Z,97739.16
2022-10-20T11:18:44.346Z,97728.88
2022-10-20T11:21:22.528Z,97730.13
2022-10-20T11:24:04.317Z,97726.25
2022-10-20T11:26:33.776Z,97728.88
2022-10-20T11:29:03.232Z,97722.53
2022-10-20T11:31:34.448Z,97709.31
2022-10-20T11:34:05.860Z,97717.53
2022-10-20T11:36:40.184Z,97716.78
2022-10-20T11:39:16.359Z,97711.25
2022-10-20T11:41:48.121Z,97713.09
2022-10-20T11:44:19.695Z,97710.50
2022-10-20T11:46:50.015Z,97703.97
2022-10-20T11:49:18.140Z,97705.28
2022-10-20T11:52:11.614Z,97709.69
2022-10-20T11:54:58.792Z,97703.00
2022-10-20T11:57:39.988Z,97702.50
2022-10-20T12:03:14.240Z,97702.16
2022-10-20T12:06:10.186Z,97690.53
2022-10-20T12:09:04.242Z,97686.16
2022-10-20T12:11:38.129Z,97686.34
2022-10-20T12:14:17.165Z,97691.75
2022-10-20T12:17:11.484Z,97680.28
2022-10-20T12:19:38.637Z,97681.59
2022-10-20T12:22:07.257Z,97679.28
2022-10-20T12:24:37.757Z,97676.34
2022-10-20T12:27:20.616Z,97675.38
2022-10-20T12:30:01.988Z,97677.81
2022-10-20T12:32:52.851Z,97673.72
2022-10-20T12:36:00.797Z,97662.41
2022-10-20T12:38:29.090Z,97651.88
2022-10-20T12:41:00.031Z,97635.81
2022-10-20T12:43:31.211Z,97634.84
2022-10-20T12:46:03.547Z,97640.78
2022-10-20T12:48:35.631Z,97648.53
2022-10-20T12:51:06.019Z,97643.44
2022-10-20T12:53:33.067Z,97635.22
2022-10-20T12:56:06.393Z,97643.06
2022-10-20T12:58:34.321Z,97652.94
2022-10-20T13:01:10.851Z,97652.63
2022-10-20T13:03:45.365Z,97656.19
2022-10-20T13:06:40.842Z,97663.09
2022-10-20T13:09:23.811Z,97660.28
2022-10-20T13:11:57.767Z,97652.59
2022-10-20T13:14:35.817Z,97660.66
2022-10-20T13:17:12.720Z,97661.59
2022-10-20T13:19:46.352Z,97631.91
2022-10-20T13:22:33.286Z,97632.06
2022-10-20T13:25:01.397Z,97626.81
2022-10-20T13:27:29.576Z,97628.50
2022-10-20T13:29:56.549Z,97636.97
2022-10-20T13:32:30.561Z,97635.84
2022-10-20T13:35:01.531Z,97632.72
2022-10-20T13:37:49.283Z,97633.84
2022-10-20T13:40:24.375Z,97628.28
2022-10-20T13:43:02.893Z,97628.25
2022-10-20T13:45:43.050Z,97635.44
2022-10-20T13:48:21.960Z,97628.56
2022-10-20T13:50:56.774Z,97635.63
2022-10-20T13:53:28.109Z,97634.31
2022-10-20T13:55:59.199Z,97640.03
2022-10-20T13:58:27.388Z,97630.81
2022-10-20T14:01:00.408Z,97633.59
2022-10-20T14:03:27.850Z,97626.38
2022-10-20T14:05:54.444Z,97626.41
2022-10-20T14:08:27.210Z,97614.97
2022-10-20T14:10:56.855Z,97627.69
2022-10-20T14:13:29.400Z,97629.47
2022-10-20T14:15:58.978Z,97618.28
2022-10-20T14:18:27.219Z,97629.91
2022-10-20T14:20:56.249Z,97634.69
2022-10-20T14:23:24.166Z,97633.69
2022-10-20T14:25:51.856Z,97632.72
2022-10-20T14:28:20.758Z,97629.47
2022-10-20T14:30:50.401Z,97627.22
2022-10-20T14:33:17.856Z,97633.44
2022-10-20T14:35:50.444Z,97642.25
2022-10-20T14:38:19.457Z,97644.75
2022-10-20T14:40:51.361Z,97652.94
2022-10-20T14:43:19.200Z,97651.31
2022-10-20T14:45:55.392Z,97638.38
2022-10-20T14:48:22.684Z,97634.94
2022-10-20T14:50:49.392Z,97637.88
2022-10-20T14:53:28.215Z,97648.50
2022-10-20T14:55:55.303Z,97654.56
2022-10-20T14:58:30.027Z,97659.28
2022-10-20T15:01:23.936Z,97657.34
2022-10-20T15:06:38.990Z,97661.75
2022-10-20T15:09:05.660Z,97646.53
2022-10-20T15:11:32.353Z,97650.59
2022-10-20T15:14:00.217Z,97648.13
2022-10-20T15:16:41.725Z,97646.66
2022-10-20T15:19:25.846Z,97657.09
2022-10-20T15:21:58.377Z,97653.50
2022-10-20T15:24:24.919Z,97641.06
2022-10-20T15:26:51.616Z,97638.13
2022-10-20T15:29:18.722Z,97643.97
2022-10-20T15:31:46.603Z,97647.06
2022-10-20T15:34:13.166Z,97644.28
2022-10-20T15:36:42.135Z,97642.31
2022-10-20T15:39:09.449Z,97634.28
2022-10-20T15:41:36.752Z,97628.66
2022-10-20T15:44:12.165Z,97630.72
2022-10-20T15:46:38.806Z,97625.66
2022-10-20T15:49:06.731Z,97622.63
2022-10-20T15:51:35.245Z,97623.56
2022-10-20T15:54:02.591Z,97625.94
2022-10-20T15:56:29.686Z,97620.69
2022-10-20T15:58:56.251Z,97609.78
2022-10-20T16:01:23.204Z,97606.50
2022-10-20T16:03:50.163Z,97595.53
2022-10-20T16:06:18.779Z,97599.84
2022-10-20T16:08:47.324Z,97597.50
2022-10-20T16:11:15.544Z,97597.63
2022-10-20T16:13:42.696Z,97589.44
2022-10-20T16:16:13.275Z,97588.03
2022-10-20T16:18:39.865Z,97590.84
2022-10-20T16:21:06.943Z,97595.06
2022-10-20T16:23:40.597Z,97588.59
2022-10-20T16:26:13.037Z,97588.19
2022-10-20T16:28:39.925Z,97592.03
2022-10-20T16:31:08.810Z,97588.97
2022-10-20T16:33:35.923Z,97587.13
2022-10-20T16:36:03.981Z,97579.97
2022-10-20T16:38:31.021Z,97566.13
2022-10-20T16:40:59.598Z,97572.56
2022-10-20T16:43:26.133Z,97561.91
2022-10-20T16:45:52.802Z,97560.25
2022-10-20T16:48:20.375Z,97547.56
2022-10-20T16:50:46.939Z,97537.00
2022-10-20T16:53:13.801Z,97525.75
2022-10-20T16:55:40.415Z,97520.41
2022-10-20T16:58:08.300Z,97524.41
2022-10-20T17:00:34.897Z,97520.41
2022-10-20T17:03:01.462Z,97524.81
2022-10-20T17:05:27.996Z,97535.59
2022-10-20T17:07:54.533Z,97543.88
2022-10-20T17:10:21.088Z,97557.72
2022-10-20T17:12:47.628Z,97555.66
2022-10-20T17:15:15.611Z,97529.84
2022-10-20T17:17:42.183Z,97508.34
2022-10-20T17:20:09.667Z,97506.78
2022-10-20T17:22:36.349Z,97496.75
2022-10-20T17:25:03.524Z,97482.19
2022-10-20T17:27:30.079Z,97468.91
2022-10-20T17:29:56.637Z,97465.91
2022-10-20T17:32:24.520Z,97472.38
2022-10-20T17:34:51.074Z,97478.72
2022-10-20T17:37:17.635Z,97492.88
2022-10-20T17:39:44.184Z,97492.16
2022-10-20T17:42:10.733Z,97495.31
2022-10-20T17:44:37.276Z,97512.31
2022-10-20T17:47:03.809Z,97514.16
2022-10-20T17:49:31.693Z,97511.50
2022-10-20T17:51:58.192Z,97493.47
2022-10-20T17:54:24.842Z,97493.06
2022-10-20T17:56:51.386Z,97486.91
2022-10-20T17:59:18.262Z,97481.59
2022-10-20T18:01:44.812Z,97481.78
2022-10-20T18:04:13.196Z,97478.50
2022-10-20T18:06:42.449Z,97484.66
2022-10-20T18:09:11.129Z,97487.75
2022-10-20T18:11:39.331Z,97491.75
2022-10-20T18:14:06.403Z,97500.84
2022-10-20T18:16:34.534Z,97501.34
2022-10-20T18:19:01.160Z,97509.25
2022-10-20T18:21:29.229Z,97518.59
2022-10-20T18:23:58.359Z,97526.25
2022-10-20T18:26:25.088Z,97534.25
2022-10-20T18:28:51.961Z,97534.03
2022-10-20T18:31:20.102Z,97532.19
2022-10-20T18:33:47.972Z,97526.25
2022-10-20T18:36:16.110Z,97530.47
2022-10-20T18:38:44.562Z,97539.97
2022-10-20T18:41:14.902Z,97520.00
2022-10-20T18:43:41.980Z,97518.25
2022-10-20T18:46:08.987Z,97517.28
2022-10-20T18:48:37.437Z,97525.50
2022-10-20T18:51:05.800Z,97534.94
2022-10-20T18:53:33.527Z,97538.78
2022-10-20T18:56:01.170Z,97549.56
2022-10-20T18:58:31.257Z,97551.81
2022-10-20T19:00:59.597Z,97554.16
2022-10-20T19:03:26.462Z,97549.06
2022-10-20T19:05:57.801Z,97549.09
2022-10-20T19:08:24.352Z,97541.50
2022-10-20T19:10:50.913Z,97536.13
2022-10-20T19:13:17.460Z,97538.88
2022-10-20T19:15:45.432Z,97538.06
2022-10-20T19:18:11.985Z,97526.53
2022-10-20T19:20:38.525Z,97525.78
2022-10-20T19:23:05.109Z,97521.50
2022-10-20T19:25:31.678Z,97530.31
2022-10-20T19:27:58.622Z,97540.69
2022-10-20T19:30:25.191Z,97540.16
2022-10-20T19:32:53.113Z,97537.09
2022-10-20T19:35:19.663Z,97538.66
2022-10-20T19:37:46.229Z,97524.72
2022-10-20T19:40:12.791Z,97524.13
2022-10-20T19:42:39.575Z,97523.53
2022-10-20T19:45:06.982Z,97539.00
2022-10-20T19:47:33.583Z,97546.88
2022-10-20T19:50:01.541Z,97555.91
2022-10-20T19:52:28.196Z,97551.19
2022-10-20T19:54:54.749Z,97540.22
2022-10-20T19:57:21.303Z,97544.13
2022-10-20T19:59:47.861Z,97538.66
2022-10-20T20:02:14.430Z,97529.56
2022-10-20T20:04:41.090Z,97532.34
2022-10-20T20:07:09.053Z,97532.47
2022-10-20T20:09:35.625Z,97534.44
2022-10-20T20:12:02.183Z,97528.63
2022-10-20T20:14:28.843Z,97533.47
2022-10-20T20:16:55.424Z,97523.56
2022-10-20T20:19:21.994Z,97517.94
2022-10-20T20:21:48.533Z,97518.78
2022-10-20T20:24:16.405Z,97519.06
2022-10-20T20:26:43.355Z,97524.50
2022-10-20T20:29:10.141Z,97524.59
2022-10-20T20:31:36.788Z,97530.63
2022-10-20T20:34:03.382Z,97526.97
2022-10-20T20:36:30.222Z,97525.19
2022-10-20T20:38:59.118Z,97515.63
2022-10-20T20:41:28.721Z,97523.91
2022-10-20T20:43:55.498Z,97531.69
2022-10-20T20:46:23.819Z,97519.44
2022-10-20T20:48:50.603Z,97527.41
2022-10-20T20:51:17.333Z,97528.53
2022-10-20T20:53:43.912Z,97533.91
2022-10-20T20:56:12.565Z,97549.22
2022-10-20T20:58:41.253Z,97560.69
2022-10-20T21:01:11.214Z,97560.84
2022-10-20T21:03:37.841Z,97563.91
2022-10-20T21:06:05.682Z,97572.47
2022-10-20T21:08:32.771Z,97571.72
2022-10-20T21:11:05.173Z,97564.88
2022-10-20T21:13:31.858Z,97563.75
2022-10-20T21:16:08.997Z,97550.56
2022-10-20T21:18:35.555Z,97547.56
2022-10-20T21:21:07.264Z,97544.78
2022-10-20T21:23:33.933Z,97532.44
2022-10-20T21:26:00.472Z,97543.53
2022-10-20T21:28:27.034Z,97557.03
2022-10-20T21:30:55.241Z,97558.00
2022-10-20T21:33:26.491Z,97556.28
2022-10-20T21:35:53.122Z,97558.66
2022-10-20T21:38:19.664Z,97555.31
2022-10-20T21:40:46.211Z,97551.72
2022-10-20T21:43:12.762Z,97551.66
2022-10-20T21:45:39.317Z,97583.53
2022-10-20T21:48:06.123Z,97586.06
2022-10-20T21:50:36.301Z,97578.75
2022-10-20T21:53:02.921Z,97587.03
2022-10-20T21:55:29.445Z,97592.28
2022-10-20T21:57:56.016Z,97591.81
2022-10-20T22:00:23.947Z,97602.56
2022-10-20T22:02:50.646Z,97603.59
2022-10-20T22:05:17.211Z,97610.53
2022-10-20T22:07:45.109Z,97617.13
2022-10-20T22:10:11.651Z,97613.44
2022-10-20T22:12:38.356Z,97620.84
2022-10-20T22:15:05.739Z,97611.97
2022-10-20T22:17:32.299Z,97608.31
2022-10-20T22:19:58.834Z,97594.25
2022-10-20T22:22:25.374Z,97597.03
2022-10-20T22:24:53.254Z,97597.34
2022-10-20T22:27:31.317Z,97588.84
2022-10-20T22:30:07.622Z,97580.25
2022-10-20T22:32:34.282Z,97591.34
2022-10-20T22:35:00.877Z,97599.06
2022-10-20T22:37:27.443Z,97601.22
2022-10-20T22:39:55.455Z,97604.19
2022-10-20T22:42:24.113Z,97608.25
2022-10-20T22:44:51.560Z,97616.53
2022-10-20T22:47:18.150Z,97607.19
2022-10-20T22:49:44.680Z,97598.00
2022-10-20T22:52:11.257Z,97593.31
2022-10-20T22:54:37.864Z,97593.91
2022-10-20T22:57:05.986Z,97593.38
2022-10-20T22:59:32.503Z,97589.78
2022-10-20T23:01:59.063Z,97584.41
2022-10-20T23:04:25.780Z,97580.03
2022-10-20T23:06:52.343Z,97582.47
2022-10-20T23:09:18.973Z,97581.66
2022-10-20T23:11:45.562Z,97581.16
2022-10-20T23:14:13.491Z,97578.09
2022-10-20T23:16:40.136Z,97576.22
2022-10-20T23:19:06.672Z,97577.25
2022-10-20T23:21:33.261Z,97582.41
2022-10-20T23:23:59.804Z,97557.34
2022-10-20T23:26:26.733Z,97551.81
2022-10-20T23:28:53.308Z,97553.16
2022-10-20T23:31:22.475Z,97547.09
2022-10-20T23:33:53.664Z,97550.91
2022-10-20T23:36:20.320Z,97540.41
2022-10-20T23:38:46.941Z,97534.28
2022-10-20T23:41:13.817Z,97542.56
2022-10-20T23:43:40.790Z,97529.19
2022-10-20T23:46:07.810Z,97526.34
2022-10-20T23:48:35.848Z,97511.13
2022-10-20T23:51:02.400Z,97504.78
2022-10-20T23:53:29.088Z,97512.84
2022-10-20T23:55:55.630Z,97521.56
2022-10-20T23:58:22.416Z,97506.59
